Time;durP1;ratioP1;P1;durP2;ratioP2;P2;SDS_P1;SDS_P2;PMS_P1;PMS_P2;Temp;Humidity;BMP_temperature;BMP_pressure;BME280_temperature;BME280_humidity;BME280_pressure;Samples;Min_cycle;Max_cycle;Signal;HPM_P1;HPM_P2
2021/04/22 00:00:49;;;;;;;10.50;7.83;;;;;;;9.29;66.17;99216.52;1801068;79;21141;-44
2021/04/22 00:03:17;;;;;;;11.15;7.78;;;;;;;9.27;66.09;99222.06;1800945;79;21477;-44
2021/04/22 00:05:45;;;;;;;12.45;8.10;;;;;;;9.20;66.18;99220.57;1801081;79;20991;-44
2021/04/22 00:08:16;;;;;;;10.55;8.05;;;;;;;9.09;66.36;99223.03;1800998;79;21146;-44
2021/04/22 00:10:45;;;;;;;12.98;8.15;;;;;;;8.99;66.56;99227.06;1801227;79;21165;-44
2021/04/22 00:13:16;;;;;;;13.08;7.53;;;;;;;8.92;66.76;99222.83;1801182;79;21142;-44
2021/04/22 00:15:45;;;;;;;14.58;8.13;;;;;;;8.87;66.96;99228.50;1801099;79;21196;-44
2021/04/22 00:18:13;;;;;;;16.15;8.45;;;;;;;8.82;67.10;99223.92;1801004;79;21166;-44
2021/04/22 00:20:41;;;;;;;11.55;8.10;;;;;;;8.82;67.10;99230.13;1800984;79;21193;-44
2021/04/22 00:23:12;;;;;;;11.70;8.28;;;;;;;8.85;66.98;99228.66;1801232;79;21700;-44
2021/04/22 00:25:41;;;;;;;11.65;7.72;;;;;;;8.83;66.97;99236.31;1801125;79;21137;-44
2021/04/22 00:28:12;;;;;;;13.45;8.63;;;;;;;8.78;66.98;99233.88;1795064;79;21366;-44
2021/04/22 00:30:41;;;;;;;12.05;7.90;;;;;;;8.73;67.10;99231.66;1790786;80;28371;-44
2021/04/22 00:33:13;;;;;;;13.20;9.17;;;;;;;8.68;67.20;99233.84;1790976;80;21114;-44
2021/04/22 00:35:42;;;;;;;9.70;7.67;;;;;;;8.65;67.26;99241.30;1790703;80;21386;-44
2021/04/22 00:38:10;;;;;;;11.40;8.10;;;;;;;8.61;67.37;99240.44;1790634;80;21193;-44
2021/04/22 00:40:40;;;;;;;9.25;7.58;;;;;;;8.58;67.42;99237.85;1790649;80;21194;-44
2021/04/22 00:43:12;;;;;;;10.40;8.88;;;;;;;8.57;67.51;99243.59;1790704;80;21893;-44
2021/04/22 00:45:43;;;;;;;10.63;8.28;;;;;;;8.57;67.52;99238.19;1790612;80;21170;-44
2021/04/22 00:48:14;;;;;;;12.82;8.13;;;;;;;8.49;67.62;99233.19;1790598;80;21157;-44
2021/04/22 00:50:45;;;;;;;11.90;8.25;;;;;;;8.60;67.62;99244.27;1790630;80;21154;-44
2021/04/22 00:53:13;;;;;;;12.47;8.00;;;;;;;8.62;67.46;99249.53;1776467;80;22277;-44
2021/04/22 00:55:42;;;;;;;10.75;8.45;;;;;;;8.60;67.28;99250.45;1782236;80;21158;-44
2021/04/22 00:58:11;;;;;;;10.90;7.47;;;;;;;8.59;67.25;99255.64;1782285;80;21170;-44
2021/04/22 01:00:46;;;;;;;8.43;6.55;;;;;;;8.62;67.22;99258.98;1782568;80;21522;-44
2021/04/22 01:03:15;;;;;;;12.88;8.40;;;;;;;8.67;67.16;99255.23;1782272;80;21138;-44
2021/04/22 01:05:46;;;;;;;12.00;8.15;;;;;;;8.67;67.18;99247.91;1782237;80;21605;-44
2021/04/22 01:08:15;;;;;;;11.10;8.75;;;;;;;8.72;67.09;99263.08;1782172;80;21114;-44
2021/04/22 01:10:45;;;;;;;12.53;9.20;;;;;;;8.76;66.93;99253.17;1782374;80;21000;-44
2021/04/22 01:13:14;;;;;;;10.78;8.00;;;;;;;8.78;66.74;99256.29;1782307;80;21443;-43
2021/04/22 01:15:42;;;;;;;12.53;8.48;;;;;;;8.78;66.63;99257.64;1782312;80;21182;-44
2021/04/22 01:18:11;;;;;;;11.15;9.30;;;;;;;8.69;66.78;99254.33;1782360;80;21400;-44
2021/04/22 01:20:44;;;;;;;11.53;8.73;;;;;;;8.62;66.84;99251.44;1781074;80;21221;-44
2021/04/22 01:23:12;;;;;;;9.38;8.23;;;;;;;8.63;66.73;99248.97;1767494;81;21182;-44
2021/04/22 01:25:44;;;;;;;10.38;8.15;;;;;;;8.67;66.65;99254.67;1767436;81;21202;-44
2021/04/22 01:28:13;;;;;;;13.10;8.80;;;;;;;8.72;66.47;99244.95;1768017;80;21163;-44
2021/04/22 01:30:49;;;;;;;11.55;8.70;;;;;;;8.69;66.35;99249.72;1777629;80;21190;-44
2021/04/22 01:33:26;;;;;;;11.83;8.93;;;;;;;8.64;66.35;99249.19;1777411;80;21118;-44
2021/04/22 01:35:58;;;;;;;12.85;8.98;;;;;;;8.55;66.55;99247.23;1777550;80;21149;-43
2021/04/22 01:38:26;;;;;;;12.23;8.65;;;;;;;8.49;66.68;99255.36;1777578;80;21159;-44
2021/04/22 01:40:57;;;;;;;11.35;8.95;;;;;;;8.39;66.75;99263.98;1777617;80;21186;-44
2021/04/22 01:43:26;;;;;;;12.68;8.73;;;;;;;8.26;67.02;99258.63;1777801;80;22622;-44
2021/04/22 01:45:54;;;;;;;11.85;8.73;;;;;;;8.20;67.18;99260.01;1777826;80;21170;-44
2021/04/22 01:48:24;;;;;;;9.78;8.48;;;;;;;8.21;67.31;99262.94;1777647;80;21146;-44
2021/04/22 01:50:52;;;;;;;11.95;9.30;;;;;;;8.27;67.60;99263.47;1777769;80;21155;-44
2021/04/22 01:53:20;;;;;;;12.70;8.98;;;;;;;8.33;67.58;99254.59;1777733;80;21159;-44
2021/04/22 01:55:51;;;;;;;11.65;9.70;;;;;;;8.36;67.40;99253.31;1777819;80;21201;-44
2021/04/22 01:58:22;;;;;;;12.53;9.25;;;;;;;8.38;67.23;99250.25;1777695;80;21190;-44
2021/04/22 02:00:55;;;;;;;12.10;9.45;;;;;;;8.37;67.22;99257.59;1777880;80;21210;-44
2021/04/22 02:03:24;;;;;;;11.88;9.83;;;;;;;8.32;67.27;99251.66;1777700;80;21142;-44
2021/04/22 02:05:54;;;;;;;13.98;10.28;;;;;;;8.28;67.43;99248.25;1777981;80;21000;-44
2021/04/22 02:08:22;;;;;;;12.65;10.60;;;;;;;8.31;67.48;99255.48;1777009;80;21367;-44
2021/04/22 02:10:50;;;;;;;16.75;10.98;;;;;;;8.32;67.50;99255.71;1777653;80;21166;-44
2021/04/22 02:13:20;;;;;;;13.68;10.45;;;;;;;8.38;67.55;99261.84;1777710;80;21166;-44
2021/04/22 02:15:48;;;;;;;14.63;10.72;;;;;;;8.38;67.63;99261.05;1777871;80;21185;-44
2021/04/22 02:18:16;;;;;;;14.83;11.22;;;;;;;8.38;67.67;99256.44;1777694;80;21166;-44
2021/04/22 02:20:44;;;;;;;14.60;10.40;;;;;;;8.39;67.63;99258.58;1777718;80;21188;-44
2021/04/22 02:23:16;;;;;;;11.05;9.85;;;;;;;8.39;67.61;99260.72;1791769;80;21143;-44
2021/04/22 02:25:44;;;;;;;15.90;11.00;;;;;;;8.39;67.61;99255.31;1792635;80;21198;-44
2021/04/22 02:28:12;;;;;;;15.70;10.72;;;;;;;8.40;67.60;99261.50;1792584;80;21150;-44
2021/04/22 02:30:42;;;;;;;12.40;9.95;;;;;;;8.00;67.43;99199.47;1792760;80;21170;-44
2021/04/22 02:33:12;;;;;;;;;;;;;;;8.38;67.36;99262.41;1795474;80;21182;-44
2021/04/22 02:35:42;;;;;;;13.83;10.23;;;;;;;8.35;67.29;99259.06;1792819;80;20190;-44
2021/04/22 02:38:11;;;;;;;13.60;10.00;;;;;;;8.22;67.62;99267.21;1792843;80;21354;-44
2021/04/22 02:40:41;;;;;;;12.40;9.10;;;;;;;8.20;67.69;99264.06;1792635;79;21173;-44
2021/04/22 02:43:12;;;;;;;13.32;9.88;;;;;;;8.21;67.56;99268.34;1792808;80;21158;-44
2021/04/22 02:45:43;;;;;;;11.65;8.98;;;;;;;8.16;67.55;99261.84;1792758;80;21214;-44
2021/04/22 02:48:11;;;;;;;15.10;10.58;;;;;;;8.11;67.68;99265.34;1792647;80;21154;-44
2021/04/22 02:50:44;;;;;;;12.78;9.73;;;;;;;8.06;67.75;99270.43;1792802;80;21193;-44
2021/04/22 02:53:13;;;;;;;12.10;9.68;;;;;;;7.99;67.87;99262.13;1792584;79;21142;-44
2021/04/22 02:55:42;;;;;;;11.48;9.25;;;;;;;7.97;67.92;99264.96;1792877;80;21161;-44
2021/04/22 02:58:13;;;;;;;10.50;9.35;;;;;;;7.94;67.99;99270.47;1790557;80;21207;-44
2021/04/22 03:00:42;;;;;;;13.03;9.78;;;;;;;7.93;68.02;99271.63;1792582;80;21153;-45
2021/04/22 03:03:10;;;;;;;12.85;9.63;;;;;;;7.92;68.05;99272.74;1792719;80;21027;-42
2021/04/22 03:05:40;;;;;;;12.53;10.13;;;;;;;7.88;68.12;99269.73;1792601;80;21137;-41
2021/04/22 03:08:07;;;;;;;14.18;10.50;;;;;;;7.80;68.14;99274.12;1792811;80;21146;-42
2021/04/22 03:10:36;;;;;;;15.40;10.23;;;;;;;7.72;68.27;99271.80;1792693;79;21190;-44
2021/04/22 03:13:06;;;;;;;12.65;9.18;;;;;;;7.66;68.38;99271.81;1792659;80;21146;-44
2021/04/22 03:15:34;;;;;;;11.85;9.15;;;;;;;7.63;68.55;99278.45;1792656;80;21145;-44
2021/04/22 03:18:03;;;;;;;12.30;9.90;;;;;;;7.63;68.38;99275.20;1792789;80;21126;-44
2021/04/22 03:20:31;;;;;;;13.10;10.48;;;;;;;7.60;68.31;99275.11;1792694;80;21130;-44
2021/04/22 03:23:01;;;;;;;14.23;10.48;;;;;;;7.56;68.66;99278.23;1781124;80;21633;-44
2021/04/22 03:25:29;;;;;;;13.15;10.48;;;;;;;7.54;68.85;99271.86;1772270;80;21033;-44
2021/04/22 03:27:57;;;;;;;12.93;9.68;;;;;;;7.49;69.01;99279.39;1777581;80;21217;-44
2021/04/22 03:30:28;;;;;;;12.55;9.83;;;;;;;7.43;69.36;99282.33;1778115;80;21115;-44
2021/04/22 03:32:57;;;;;;;10.45;8.98;;;;;;;7.43;69.67;99280.98;1778286;80;21158;-44
2021/04/22 03:35:25;;;;;;;10.90;9.10;;;;;;;7.45;69.70;99283.91;1778219;80;22235;-44
2021/04/22 03:37:53;;;;;;;11.10;9.25;;;;;;;7.52;69.59;99289.49;1778244;80;21562;-44
2021/04/22 03:40:24;;;;;;;13.10;9.95;;;;;;;7.58;69.49;99292.19;1778155;80;21182;-44
2021/04/22 03:42:53;;;;;;;13.78;9.85;;;;;;;7.61;69.38;99294.19;1778236;80;21170;-44
2021/04/22 03:45:22;;;;;;;11.25;9.60;;;;;;;7.61;69.29;99294.19;1778204;80;21142;-44
2021/04/22 03:47:50;;;;;;;12.90;10.15;;;;;;;7.56;69.50;99301.17;1778471;80;21416;-44
2021/04/22 03:50:19;;;;;;;12.60;9.50;;;;;;;7.54;69.64;99308.83;1778124;80;21150;-43
2021/04/22 03:52:47;;;;;;;10.45;9.35;;;;;;;7.56;69.78;99309.27;1778151;80;21159;-43
2021/04/22 03:55:16;;;;;;;11.55;9.45;;;;;;;7.61;69.75;99311.73;1778156;80;21127;-43
2021/04/22 03:57:45;;;;;;;10.45;7.65;;;;;;;7.67;69.71;99309.02;1778399;80;21182;-43
2021/04/22 04:00:16;;;;;;;12.95;10.45;;;;;;;7.73;69.68;99321.16;1778214;80;21601;-43
2021/04/22 04:02:45;;;;;;;13.30;10.72;;;;;;;7.74;69.68;99326.22;1778103;80;21063;-44
2021/04/22 04:05:14;;;;;;;11.57;10.28;;;;;;;7.75;69.82;99327.77;1778103;80;21138;-44
2021/04/22 04:07:42;;;;;;;14.65;10.15;;;;;;;7.76;69.90;99323.16;1778523;80;21146;-43
2021/04/22 04:10:12;;;;;;;11.43;9.13;;;;;;;7.82;69.97;99329.91;1778433;80;21186;-43
2021/04/22 04:12:40;;;;;;;12.68;10.35;;;;;;;7.95;69.96;99332.78;1778173;80;21867;-44
2021/04/22 04:15:10;;;;;;;12.13;10.28;;;;;;;8.05;69.89;99332.30;1778162;80;21162;-44
2021/04/22 04:17:37;;;;;;;15.28;11.15;;;;;;;8.10;69.84;99333.41;1778297;80;21174;-43
2021/04/22 04:20:11;;;;;;;13.78;10.08;;;;;;;8.16;69.78;99335.30;1778219;80;21731;-44
2021/04/22 04:22:40;;;;;;;16.37;11.60;;;;;;;8.19;69.82;99335.39;1787007;79;21138;-43
2021/04/22 04:25:10;;;;;;;15.30;10.85;;;;;;;8.23;69.82;99336.27;1796525;79;21368;-44
2021/04/22 04:27:38;;;;;;;11.25;8.48;;;;;;;8.28;69.69;99333.33;1796635;79;21193;-44
2021/04/22 04:30:11;;;;;;;13.18;9.73;;;;;;;8.39;69.69;99340.97;1787381;79;21131;-43
2021/04/22 04:32:39;;;;;;;13.32;10.03;;;;;;;8.51;69.72;99343.63;1788690;79;21162;-43
2021/04/22 04:35:11;;;;;;;17.60;11.50;;;;;;;8.61;69.80;99340.42;1796236;79;21185;-44
2021/04/22 04:37:39;;;;;;;13.48;10.88;;;;;;;8.74;69.66;99345.97;1796063;79;21294;-44
2021/04/22 04:40:11;;;;;;;13.15;9.50;;;;;;;8.84;69.45;99348.72;1795853;79;21194;-43
2021/04/22 04:42:39;;;;;;;13.80;10.03;;;;;;;8.97;69.45;99349.64;1796039;79;21600;-43
2021/04/22 04:45:12;;;;;;;11.38;9.35;;;;;;;9.12;69.06;99346.72;1764510;81;21047;-43
2021/04/22 04:47:39;;;;;;;13.13;9.75;;;;;;;9.29;68.73;99352.34;1764603;81;21162;-43
2021/04/22 04:50:09;;;;;;;13.98;10.25;;;;;;;9.43;68.55;99352.68;1764589;81;21889;-43
2021/04/22 04:52:36;;;;;;;15.10;10.57;;;;;;;9.51;68.36;99358.46;1791645;80;21062;-43
2021/04/22 04:55:07;;;;;;;11.33;10.13;;;;;;;9.57;68.23;99360.56;1791311;80;21643;-43
2021/04/22 04:57:34;;;;;;;12.28;10.35;;;;;;;9.63;68.18;99357.02;1791565;80;21579;-43
2021/04/22 05:00:07;;;;;;;14.53;10.03;;;;;;;9.72;67.92;99358.95;1791490;80;21153;-43
2021/04/22 05:02:35;;;;;;;12.73;10.20;;;;;;;9.80;68.09;99357.96;1791487;80;21212;-44
2021/04/22 05:05:07;;;;;;;10.45;9.35;;;;;;;9.90;67.78;99352.56;1791034;80;21129;-43
2021/04/22 05:07:35;;;;;;;11.33;9.40;;;;;;;10.06;67.58;99351.16;1758695;81;21601;-43
2021/04/22 05:10:06;;;;;;;11.83;9.23;;;;;;;10.21;66.93;99349.77;1791456;80;21192;-44
2021/04/22 05:12:35;;;;;;;12.00;9.75;;;;;;;10.31;66.45;99351.12;1758692;81;21153;-44
2021/04/22 05:15:06;;;;;;;11.47;9.53;;;;;;;10.38;65.94;99358.02;1791754;80;21738;-44
2021/04/22 05:17:35;;;;;;;13.13;9.08;;;;;;;10.45;65.98;99356.81;1758608;81;21577;-44
2021/04/22 05:20:05;;;;;;;10.58;8.43;;;;;;;10.57;65.69;99358.00;1791478;80;21164;-44
2021/04/22 05:22:33;;;;;;;9.33;8.20;;;;;;;10.70;65.40;99358.04;1756992;81;21184;-44
2021/04/22 05:25:04;;;;;;;13.68;8.90;;;;;;;10.83;65.08;99359.45;1788399;80;21157;-44
2021/04/22 05:27:33;;;;;;;10.68;9.30;;;;;;;11.01;64.84;99352.19;1777470;80;21725;-44
2021/04/22 05:30:01;;;;;;;12.50;9.03;;;;;;;11.10;64.53;99360.29;1814540;78;21070;-44
2021/04/22 05:32:29;;;;;;;11.35;8.73;;;;;;;11.15;64.76;99356.48;1820650;78;21118;-44
2021/04/22 05:37:27;;;;;;;11.75;9.58;;;;;;;11.28;64.22;99356.50;1835415;78;22637;-43
2021/04/22 05:39:55;;;;;;;12.85;9.93;;;;;;;11.18;64.42;99361.20;1807809;79;21012;-43
2021/04/22 05:42:23;;;;;;;14.60;9.28;;;;;;;11.22;64.58;99359.33;1807683;79;21358;-43
2021/04/22 05:44:51;;;;;;;12.98;10.05;;;;;;;11.25;64.44;99362.66;1807815;79;20992;-43
2021/04/22 05:47:19;;;;;;;10.25;9.25;;;;;;;11.27;64.18;99369.88;1807606;79;21581;-43
2021/04/22 05:49:47;;;;;;;10.20;8.85;;;;;;;11.30;64.17;99366.42;1807835;79;20949;-43
2021/04/22 05:52:16;;;;;;;10.68;8.48;;;;;;;11.36;63.66;99363.63;1807638;79;21365;-44
2021/04/22 05:54:44;;;;;;;11.95;9.68;;;;;;;11.41;63.62;99365.24;1807960;79;22280;-44
2021/04/22 05:57:12;;;;;;;14.13;10.63;;;;;;;11.45;63.79;99364.15;1807533;79;21158;-43
2021/04/22 05:59:40;;;;;;;10.82;9.25;;;;;;;11.50;63.52;99366.55;1807848;79;20944;-44
2021/04/22 06:02:08;;;;;;;10.90;9.00;;;;;;;11.51;62.60;99370.05;1807701;79;21143;-43
2021/04/22 06:04:36;;;;;;;15.48;11.22;;;;;;;11.47;62.60;99370.02;1807749;79;21143;-44
2021/04/22 06:07:05;;;;;;;15.23;11.03;;;;;;;11.45;62.39;99367.44;1808146;79;21249;-44
2021/04/22 06:09:33;;;;;;;11.75;10.40;;;;;;;11.42;62.53;99368.17;1807690;79;21185;-43
2021/04/22 06:12:05;;;;;;;12.90;10.08;;;;;;;11.38;62.65;99369.45;1807617;79;21182;-44
2021/04/22 06:14:31;;;;;;;11.25;9.65;;;;;;;11.37;62.35;99373.91;1807753;79;21166;-43
2021/04/22 06:16:59;;;;;;;12.88;11.15;;;;;;;11.33;62.31;99372.47;1807735;79;21131;-44
2021/04/22 06:19:27;;;;;;;11.53;10.32;;;;;;;11.36;62.64;99374.48;1807635;79;21361;-43
2021/04/22 06:21:56;;;;;;;12.40;10.40;;;;;;;11.39;62.57;99375.09;1807648;79;21011;-43
2021/04/22 06:24:24;;;;;;;13.35;10.68;;;;;;;11.43;62.36;99371.86;1807610;79;21154;-43
2021/04/22 06:26:52;;;;;;;14.43;9.93;;;;;;;11.47;62.40;99371.37;1807473;79;21193;-43
2021/04/22 06:29:20;;;;;;;11.60;9.53;;;;;;;11.21;62.20;99328.69;1790982;79;21178;-43
2021/04/22 06:31:48;;;;;;;13.13;9.98;;;;;;;11.55;62.48;99379.82;1775935;80;21372;-43
2021/04/22 06:34:16;;;;;;;12.80;9.98;;;;;;;11.58;62.61;99379.08;1775741;80;21196;-43
2021/04/22 06:36:44;;;;;;;11.45;10.13;;;;;;;11.63;62.39;99379.34;1769659;80;21159;-43
2021/04/22 06:39:12;;;;;;;10.30;8.80;;;;;;;11.65;62.66;99373.77;1765270;81;21205;-43
2021/04/22 06:41:40;;;;;;;10.48;9.33;;;;;;;11.71;62.14;99375.59;1765156;81;21155;-43
2021/04/22 06:44:08;;;;;;;10.85;8.83;;;;;;;11.76;62.05;99378.78;1765208;80;21189;-43
2021/04/22 06:46:39;;;;;;;12.58;9.73;;;;;;;11.81;62.34;99374.21;1765238;80;21195;-43
2021/04/22 06:49:07;;;;;;;10.55;9.20;;;;;;;11.87;61.96;99374.08;1764777;81;21020;-44
2021/04/22 06:51:36;;;;;;;12.10;9.75;;;;;;;11.92;61.81;99372.41;1764557;81;21174;-44
2021/04/22 06:54:06;;;;;;;12.13;9.63;;;;;;;11.95;61.22;99374.41;1764863;80;21162;-44
2021/04/22 06:56:34;;;;;;;10.78;8.68;;;;;;;11.99;61.61;99367.08;1764526;81;21345;-44
2021/04/22 06:59:03;;;;;;;13.65;9.83;;;;;;;12.11;61.53;99366.84;1764640;80;21032;-44
2021/04/22 07:01:32;;;;;;;12.98;9.60;;;;;;;12.28;60.47;99364.92;1764722;80;21162;-44
2021/04/22 07:04:00;;;;;;;10.53;8.53;;;;;;;12.42;59.84;99373.25;1764942;81;21598;-44
2021/04/22 07:06:29;;;;;;;13.65;9.00;;;;;;;12.50;59.17;99365.37;1764774;81;21617;-44
2021/04/22 07:08:57;;;;;;;9.75;8.50;;;;;;;12.56;59.47;99369.91;1743553;81;22605;-44
2021/04/22 07:11:26;;;;;;;12.65;9.53;;;;;;;12.67;59.52;99375.46;1764423;81;21447;-43
2021/04/22 07:13:55;;;;;;;11.15;9.53;;;;;;;12.79;58.92;99373.83;1764721;81;21582;-43
2021/04/22 07:16:23;;;;;;;12.88;10.32;;;;;;;12.90;58.56;99370.64;1764529;81;21569;-43
2021/04/22 07:18:52;;;;;;;12.20;9.13;;;;;;;13.00;58.96;99373.47;1764638;81;21170;-43
2021/04/22 07:21:20;;;;;;;9.38;7.85;;;;;;;13.16;58.79;99380.63;1764577;81;21146;-44
2021/04/22 07:23:49;;;;;;;10.05;8.88;;;;;;;13.35;58.07;99375.74;1764632;81;21174;-44
2021/04/22 07:26:20;;;;;;;11.88;9.05;;;;;;;13.57;57.33;99378.61;1764526;81;21036;-44
2021/04/22 07:28:48;;;;;;;12.98;9.28;;;;;;;13.75;56.39;99384.95;1774339;79;21631;-44
2021/04/22 07:31:17;;;;;;;10.48;8.30;;;;;;;13.89;56.28;99390.52;1796170;79;21618;-44
2021/04/22 07:33:49;;;;;;;8.25;7.37;;;;;;;14.01;56.47;99390.18;1796213;79;21186;-44
2021/04/22 07:36:18;;;;;;;11.75;7.83;;;;;;;14.16;54.67;99389.09;1797476;79;21171;-44
2021/04/22 07:38:48;;;;;;;10.33;8.03;;;;;;;14.31;55.04;99385.27;1802941;79;21582;-44
2021/04/22 07:41:20;;;;;;;9.68;7.28;;;;;;;14.52;54.83;99389.28;1802630;79;21032;-44
2021/04/22 07:43:48;;;;;;;8.35;7.35;;;;;;;14.74;54.39;99386.22;1802633;79;21166;-44
2021/04/22 07:46:16;;;;;;;8.10;7.08;;;;;;;14.99;54.02;99390.37;1802463;79;21351;-44
2021/04/22 07:48:45;;;;;;;8.33;6.65;;;;;;;15.18;52.15;99379.08;1802455;79;21131;-44
2021/04/22 07:51:13;;;;;;;9.73;7.15;;;;;;;15.35;52.16;99380.81;1802639;79;21613;-44
2021/04/22 07:53:42;;;;;;;6.78;6.00;;;;;;;15.15;49.58;99338.87;1802607;79;21063;-44
2021/04/22 07:56:10;;;;;;;10.38;7.03;;;;;;;15.54;50.10;99372.28;1802429;79;21162;-44
2021/04/22 07:58:39;;;;;;;6.80;6.00;;;;;;;15.69;50.63;99379.26;1802627;79;21356;-44
2021/04/22 08:01:08;;;;;;;7.90;6.45;;;;;;;15.82;49.52;99383.75;1802477;79;21142;-44
2021/04/22 08:03:36;;;;;;;7.85;7.03;;;;;;;15.98;50.08;99382.72;1802564;79;21286;-44
2021/04/22 08:06:05;;;;;;;7.50;6.55;;;;;;;16.17;48.91;99384.25;1802666;79;21604;-44
2021/04/22 08:08:33;;;;;;;7.30;5.72;;;;;;;16.31;48.34;99385.56;1802493;78;21146;-43
2021/04/22 08:11:01;;;;;;;6.75;6.05;;;;;;;16.36;47.22;99374.96;1802451;79;21184;-44
2021/04/22 08:13:29;;;;;;;7.47;6.22;;;;;;;16.36;47.47;99378.31;1802411;79;22333;-43
2021/04/22 08:15:58;;;;;;;8.80;5.75;;;;;;;16.30;47.08;99381.27;1802489;79;20973;-44
2021/04/22 08:18:27;;;;;;;7.62;6.65;;;;;;;16.27;47.86;99386.14;1802488;79;21127;-44
2021/04/22 08:20:57;;;;;;;7.17;6.20;;;;;;;16.29;47.08;99372.27;1802702;79;21170;-43
2021/04/22 08:23:28;;;;;;;6.50;5.40;;;;;;;16.34;47.40;99382.02;1802602;79;21785;-44
2021/04/22 08:25:57;;;;;;;6.10;5.50;;;;;;;16.44;46.88;99377.09;1802482;79;21432;-44
2021/04/22 08:28:27;;;;;;;6.17;5.37;;;;;;;16.56;46.26;99372.53;1802581;79;22131;-44
2021/04/22 08:31:05;;;;;;;6.53;5.87;;;;;;;16.69;46.21;99373.68;1802594;79;21154;-44
2021/04/22 08:33:34;;;;;;;8.38;5.80;;;;;;;16.83;45.65;99372.22;1793522;79;21206;-44
2021/04/22 08:36:05;;;;;;;6.12;5.33;;;;;;;16.93;44.52;99366.49;1770894;80;21366;-44
2021/04/22 08:38:32;;;;;;;6.30;5.40;;;;;;;16.99;43.76;99364.11;1770715;81;21530;-44
2021/04/22 08:41:01;;;;;;;6.17;5.25;;;;;;;17.08;44.76;99364.43;1770750;81;21421;-44
2021/04/22 08:43:30;;;;;;;7.03;5.83;;;;;;;17.26;44.90;99363.70;1770681;81;21162;-43
2021/04/22 08:45:58;;;;;;;6.45;5.67;;;;;;;17.48;44.11;99369.17;1770909;81;22292;-44
2021/04/22 08:48:27;;;;;;;6.62;5.92;;;;;;;17.66;43.27;99357.50;1770671;81;21195;-44
2021/04/22 08:50:55;;;;;;;8.38;5.95;;;;;;;17.81;42.86;99357.52;1770788;81;21755;-44
2021/04/22 08:53:30;;;;;;;5.70;5.17;;;;;;;17.89;42.28;99347.86;1770729;80;21138;-44
2021/04/22 08:55:58;;;;;;;5.92;4.87;;;;;;;17.93;41.03;99365.05;1770609;81;21146;-44
2021/04/22 08:58:27;;;;;;;5.75;5.10;;;;;;;17.97;42.12;99352.06;1765436;80;21147;-44
2021/04/22 09:01:04;;;;;;;7.08;5.08;;;;;;;18.04;41.23;99357.48;1770998;81;21201;-43
2021/04/22 09:03:33;;;;;;;9.10;5.95;;;;;;;18.13;41.94;99352.28;1770602;81;21052;-44
2021/04/22 09:06:01;;;;;;;5.92;5.33;;;;;;;18.23;41.94;99356.87;1770893;81;21612;-43
2021/04/22 09:08:44;;;;;;;6.25;5.65;;;;;;;18.30;41.72;99350.53;1770708;80;21134;-44
2021/04/22 09:11:14;;;;;;;6.85;5.22;;;;;;;18.33;41.76;99362.83;1770797;80;21162;-43
2021/04/22 09:13:43;;;;;;;6.20;5.60;;;;;;;18.32;42.00;99364.59;1770943;81;21185;-44
2021/04/22 09:16:15;;;;;;;5.72;5.12;;;;;;;18.26;42.21;99354.67;1770988;80;21606;-44
2021/04/22 09:18:59;;;;;;;6.83;4.80;;;;;;;18.30;43.42;99362.25;1770806;81;21135;-43
2021/04/22 09:21:33;;;;;;;6.42;4.85;;;;;;;18.44;42.56;99364.85;1770711;80;21665;-43
2021/04/22 09:24:07;;;;;;;6.05;4.55;;;;;;;18.61;42.12;99352.87;1770812;80;21166;-43
2021/04/22 09:27:00;;;;;;;5.72;5.03;;;;;;;18.76;41.94;99349.92;1770761;81;21361;-43
2021/04/22 09:29:42;;;;;;;7.22;4.60;;;;;;;18.87;41.20;99345.84;1784052;79;21437;-44
2021/04/22 09:32:16;;;;;;;5.20;4.47;;;;;;;18.80;40.45;99346.52;1802656;79;21142;-44
2021/04/22 09:34:51;;;;;;;6.75;4.70;;;;;;;18.74;41.01;99348.17;1802419;79;21154;-43
2021/04/22 09:37:22;;;;;;;7.03;5.17;;;;;;;18.76;41.51;99340.31;1802377;78;21194;-44
2021/04/22 09:39:51;;;;;;;6.28;4.25;;;;;;;18.82;40.56;99340.81;1802518;79;22364;-43
2021/04/22 09:42:19;;;;;;;5.58;5.00;;;;;;;18.89;40.56;99337.95;1802281;78;21127;-43
2021/04/22 09:44:50;;;;;;;4.87;4.35;;;;;;;19.01;40.11;99335.22;1802632;79;21033;-44
2021/04/22 09:47:22;;;;;;;5.23;4.13;;;;;;;19.11;40.43;99319.17;1802641;79;21149;-44
2021/04/22 09:49:59;;;;;;;5.47;4.55;;;;;;;19.21;39.34;99320.97;1802596;79;21606;-44
2021/04/22 09:52:32;;;;;;;4.58;4.15;;;;;;;19.25;38.83;99333.27;1802364;79;21240;-44
2021/04/22 09:55:00;;;;;;;5.75;4.40;;;;;;;19.17;37.71;99331.22;1802404;79;21155;-44
2021/04/22 09:57:32;;;;;;;5.50;4.28;;;;;;;19.01;38.17;99325.02;1802468;79;21147;-44
2021/04/22 10:00:00;;;;;;;5.40;4.37;;;;;;;18.87;39.03;99328.58;1802485;79;21182;-44
2021/04/22 10:02:28;;;;;;;5.20;4.05;;;;;;;18.65;39.28;99323.98;1802519;78;21179;-44
2021/04/22 10:04:56;;;;;;;5.65;4.60;;;;;;;18.55;40.37;99321.56;1802481;79;21352;-44
2021/04/22 10:07:30;;;;;;;6.60;4.40;;;;;;;18.68;40.60;99321.02;1802583;79;21119;-44
2021/04/22 10:10:01;;;;;;;5.37;4.62;;;;;;;18.79;39.22;99321.02;1802519;78;21592;-44
2021/04/22 10:12:34;;;;;;;5.47;4.47;;;;;;;18.85;39.11;99317.22;1802473;79;21190;-43
2021/04/22 10:15:21;;;;;;;5.55;4.03;;;;;;;18.91;38.56;99322.42;1802478;78;21183;-44
2021/04/22 10:17:54;;;;;;;6.22;4.33;;;;;;;19.01;39.00;99316.77;1802389;79;21471;-44
2021/04/22 10:20:24;;;;;;;5.35;4.15;;;;;;;19.18;38.98;99311.38;1802314;79;21147;-44
2021/04/22 10:22:54;;;;;;;6.05;4.53;;;;;;;19.33;38.15;99311.33;1802648;79;22055;-43
2021/04/22 10:25:26;;;;;;;5.42;4.17;;;;;;;19.35;38.34;99300.10;1802665;79;21174;-43
2021/04/22 10:27:54;;;;;;;8.23;5.20;;;;;;;19.26;38.04;99307.34;1802577;79;21115;-43
2021/04/22 10:30:25;;;;;;;7.62;4.60;;;;;;;18.99;38.80;99307.37;1802602;79;22264;-44
2021/04/22 10:32:52;;;;;;;7.47;4.40;;;;;;;18.74;39.22;99310.50;1802633;79;21194;-44
2021/04/22 10:35:24;;;;;;;5.45;4.40;;;;;;;18.63;39.64;99309.31;1802499;79;21134;-44
2021/04/22 10:37:53;;;;;;;5.28;4.78;;;;;;;18.64;38.80;99310.84;1799444;78;21612;-44
2021/04/22 10:40:25;;;;;;;6.10;3.53;;;;;;;18.67;38.88;99307.87;1796432;79;21546;-44
2021/04/22 10:42:55;;;;;;;7.97;4.08;;;;;;;18.76;38.08;99314.22;1796066;79;21414;-44
2021/04/22 10:45:22;;;;;;;6.30;3.95;;;;;;;18.88;39.34;99308.16;1776288;79;21182;-43
2021/04/22 10:47:50;;;;;;;6.83;4.15;;;;;;;19.02;38.96;99306.56;1764577;81;21134;-43
2021/04/22 10:50:29;;;;;;;4.90;4.10;;;;;;;19.23;39.12;99302.66;1764621;80;21118;-44
2021/04/22 10:53:01;;;;;;;6.50;4.20;;;;;;;19.40;37.03;99292.75;1764304;81;21454;-43
2021/04/22 10:55:31;;;;;;;;;;;;;;;19.31;37.06;99295.27;1767784;79;21454;-44
2021/04/22 10:58:12;;;;;;;7.15;4.03;;;;;;;19.06;37.86;99297.06;1764781;81;20278;-44
2021/04/22 11:00:51;;;;;;;5.70;3.85;;;;;;;18.68;38.59;99301.20;1764702;81;21590;-44
2021/04/22 11:03:40;;;;;;;9.00;4.45;;;;;;;18.38;39.47;99299.24;1764768;81;21135;-44
2021/04/22 11:06:17;;;;;;;5.83;3.55;;;;;;;18.01;40.95;99297.97;1719146;81;21127;-44
2021/04/22 11:08:53;;;;;;;7.30;3.42;;;;;;;17.55;42.75;99311.56;1764289;81;21204;-44
2021/04/22 11:11:29;;;;;;;6.10;3.33;;;;;;;17.08;43.74;99302.80;1764550;81;21012;-43
2021/04/22 11:14:16;;;;;;;4.87;3.37;;;;;;;16.73;44.00;99293.67;1764650;80;21122;-43
2021/04/22 11:16:52;;;;;;;4.10;3.60;;;;;;;16.66;45.36;99280.02;1764502;81;21163;-44
2021/04/22 11:19:27;;;;;;;4.47;3.90;;;;;;;16.77;45.26;99281.32;1764738;81;21695;-44
2021/04/22 11:21:58;;;;;;;4.80;3.83;;;;;;;16.94;43.94;99277.69;1764221;81;21378;-44
2021/04/22 11:24:35;;;;;;;7.37;4.80;;;;;;;17.09;42.80;99272.86;1764641;81;21610;-44
2021/04/22 11:27:14;;;;;;;7.55;5.05;;;;;;;17.37;42.87;99271.22;1764730;81;21984;-44
2021/04/22 11:29:58;;;;;;;7.60;5.12;;;;;;;17.83;40.85;99260.36;1786207;79;21170;-44
2021/04/22 11:32:40;;;;;;;7.08;5.08;;;;;;;18.36;39.99;99263.19;1796056;79;21127;-44
2021/04/22 11:35:15;;;;;;;5.70;4.83;;;;;;;18.62;39.28;99225.97;1796097;79;21415;-44
2021/04/22 11:37:47;;;;;;;5.37;4.30;;;;;;;19.21;39.21;99252.26;1800707;79;21127;-44
2021/04/22 11:40:29;;;;;;;6.15;4.33;;;;;;;19.40;39.18;99250.73;1813621;79;21140;-44
2021/04/22 11:42:58;;;;;;;4.15;3.72;;;;;;;19.40;39.21;99261.13;1813629;79;21122;-44
2021/04/22 11:45:29;;;;;;;4.55;3.20;;;;;;;19.35;38.61;99258.87;1813566;78;21200;-44
2021/04/22 11:48:07;;;;;;;4.50;3.00;;;;;;;19.30;36.33;99261.32;1813667;79;21367;-44